CheckWX is a tool to help pilots better visualize weather data.  It is not intended as a substitute for an official pre-flight weather briefing.

12:49:15 UTC

EDDH TAF
Hamburg Airport
Hamburg, Germany
TAF EDDH 191100Z 1912/2018 30012KT 9999 SCT035 BECMG 1916/1919 23003KT TEMPO 2003/2009 4000 -DZRA BKN012 BECMG 2010/2012 27010KT BECMG 2016/2018 25003KT

Sep-19@
12:00 UTC

Sep-19 @ 12:00 UTC

Sep-19@
16:00 UTC

Sep-19 @ 16:00 UTC

TAF EDDH 191100Z 1912/2018 30012KT 9999 SCT035
Wind
  • 300° at 12 KTS
Cloud Levels
  • Scattered at 3,500' AGL

Sep-19@
16:00 UTC

Sep-19 @ 16:00 UTC

Sep-20@
10:00 UTC

Sep-20 @ 10:00 UTC

BECMG 1916/1919 23003KT

Becoming

Becoming Conditions expected by Thu, Sep 19, 2019 @ 19:00 UTC

Wind
  • 230° at 3 KTS
Cloud Levels
  • Scattered at 3,500' AGL

Sep-20@
03:00 UTC

Sep-20 @ 03:00 UTC

Sep-20@
09:00 UTC

Sep-20 @ 09:00 UTC

TEMPO 2003/2009 4000 -DZRA BKN012

Temporary

Temporary Changes expected for less than half the time period

Conditions
Light Drizzle, Light Rain
Cloud Levels
  • Broken at 1,200' AGL

Sep-20@
10:00 UTC

Sep-20 @ 10:00 UTC

Sep-20@
16:00 UTC

Sep-20 @ 16:00 UTC

BECMG 2010/2012 27010KT

Becoming

Becoming Conditions expected by Fri, Sep 20, 2019 @ 12:00 UTC

Wind
  • 270° at 10 KTS
Cloud Levels
  • Scattered at 3,500' AGL

Sep-20@
16:00 UTC

Sep-20 @ 16:00 UTC

Sep-20@
18:00 UTC

Sep-20 @ 18:00 UTC

BECMG 2016/2018 25003KT

Becoming

Becoming Conditions expected by Fri, Sep 20, 2019 @ 18:00 UTC

Wind
  • 250° at 3 KTS
Cloud Levels
  • Scattered at 3,500' AGL